Time;durP1;ratioP1;P1;durP2;ratioP2;P2;SDS_P1;SDS_P2;PMS_P1;PMS_P2;Temp;Humidity;BMP_temperature;BMP_pressure;BME280_temperature;BME280_humidity;BME280_pressure;Samples;Min_cycle;Max_cycle;Signal;HPM_P1;HPM_P2
2022/11/24 00:01:14;;;;;;;15.30;3.03;;;10.20;98.20;;;;;;5073718;28;20448;-70
2022/11/24 00:03:41;;;;;;;10.83;3.30;;;10.20;98.10;;;;;;5073356;28;20472;-70
2022/11/24 00:06:11;;;;;;;12.00;3.13;;;10.20;98.10;;;;;;5072931;28;20476;-70
2022/11/24 00:08:39;;;;;;;19.43;5.03;;;10.20;98.00;;;;;;5077023;28;20498;-70
2022/11/24 00:11:07;;;;;;;13.03;3.00;;;10.20;97.90;;;;;;5076628;28;20448;-70
2022/11/24 00:13:34;;;;;;;13.87;3.30;;;10.20;97.90;;;;;;5076395;28;20476;-70
2022/11/24 00:16:06;;;;;;;15.53;3.40;;;10.20;98.00;;;;;;5076063;28;20985;-70
2022/11/24 00:18:32;;;;;;;12.90;4.23;;;10.20;98.00;;;;;;5076333;28;20448;-70
2022/11/24 00:20:59;;;;;;;13.10;2.97;;;10.30;97.90;;;;;;5076315;28;20439;-70
2022/11/24 00:23:27;;;;;;;14.90;3.13;;;10.30;97.80;;;;;;5075816;28;20846;-70
2022/11/24 00:25:54;;;;;;;11.20;2.53;;;10.40;97.60;;;;;;5076116;28;20477;-70
2022/11/24 00:28:21;;;;;;;10.57;2.33;;;10.30;97.50;;;;;;5076059;28;20449;-70
2022/11/24 00:30:47;;;;;;;9.50;2.67;;;10.30;97.50;;;;;;5076056;28;20457;-70
2022/11/24 00:33:14;;;;;;;11.57;2.50;;;10.30;97.70;;;;;;5076029;28;20465;-70
2022/11/24 00:35:41;;;;;;;14.33;3.03;;;10.30;97.30;;;;;;5076085;28;20433;-70
2022/11/24 00:38:07;;;;;;;12.13;3.10;;;10.40;97.40;;;;;;5075831;28;20455;-70
2022/11/24 00:40:35;;;;;;;8.50;3.17;;;10.40;97.30;;;;;;5076242;28;20440;-70
2022/11/24 00:43:02;;;;;;;10.57;3.00;;;10.40;97.30;;;;;;5075710;28;20478;-70
2022/11/24 00:45:29;;;;;;;6.90;2.60;;;10.40;96.90;;;;;;5076625;28;20455;-70
2022/11/24 00:47:55;;;;;;;16.50;3.83;;;10.30;96.90;;;;;;5075797;28;20441;-70
2022/11/24 00:50:22;;;;;;;8.73;2.23;;;10.30;97.00;;;;;;5075668;28;20456;-70
2022/11/24 00:52:49;;;;;;;11.87;2.70;;;10.40;97.10;;;;;;5075577;28;20478;-70
2022/11/24 00:55:16;;;;;;;16.73;4.07;;;10.30;97.00;;;;;;5075745;28;20455;-70
2022/11/24 00:57:44;;;;;;;15.03;3.50;;;10.30;96.90;;;;;;5076761;28;20432;-70
2022/11/24 01:00:12;;;;;;;12.87;4.07;;;10.30;97.00;;;;;;5077972;28;20448;-70
2022/11/24 01:02:39;;;;;;;13.13;3.40;;;10.30;97.10;;;;;;5077773;28;20465;-70
2022/11/24 01:05:06;;;;;;;10.17;2.23;;;10.30;97.10;;;;;;5077862;28;20458;-70
2022/11/24 01:07:33;;;;;;;10.13;2.30;;;10.30;97.00;;;;;;5076585;28;20506;-71
2022/11/24 01:10:00;;;;;;;14.13;3.43;;;10.30;97.10;;;;;;5077250;28;20815;-71
2022/11/24 01:12:26;;;;;;;12.00;2.70;;;10.30;97.10;;;;;;5075146;28;20847;-70
2022/11/24 01:14:54;;;;;;;4.77;2.00;;;10.30;97.10;;;;;;5076588;28;20455;-70
2022/11/24 01:17:21;;;;;;;14.93;3.20;;;10.20;96.90;;;;;;5077566;28;20439;-70
2022/11/24 01:19:48;;;;;;;11.43;2.80;;;10.20;97.10;;;;;;5074854;28;20450;-70
2022/11/24 01:22:15;;;;;;;17.27;3.60;;;10.20;97.20;;;;;;5075397;28;20472;-70
2022/11/24 01:24:42;;;;;;;19.70;2.83;;;10.20;97.30;;;;;;5074986;28;20453;-70
2022/11/24 01:27:09;;;;;;;13.60;3.23;;;10.20;97.30;;;;;;5074812;28;20484;-70
2022/11/24 01:29:36;;;;;;;14.40;3.00;;;10.20;97.30;;;;;;5075089;28;20463;-70
2022/11/24 01:32:04;;;;;;;15.87;2.73;;;10.20;97.30;;;;;;5075684;28;20781;-70
2022/11/24 01:34:31;;;;;;;14.17;2.60;;;10.20;97.20;;;;;;5074607;28;20530;-70
2022/11/24 01:36:57;;;;;;;22.27;3.20;;;10.20;97.10;;;;;;5074634;28;20850;-70
2022/11/24 01:39:24;;;;;;;11.53;3.20;;;10.10;97.10;;;;;;5074626;28;20461;-70
2022/11/24 01:41:51;;;;;;;10.60;2.80;;;10.10;97.20;;;;;;5074436;28;20444;-70
2022/11/24 01:44:23;;;;;;;13.60;3.20;;;10.10;97.20;;;;;;5074270;28;20456;-70
2022/11/24 01:46:54;;;;;;;15.57;3.00;;;10.10;97.20;;;;;;5074126;28;20464;-70
2022/11/24 01:49:25;;;;;;;13.07;2.53;;;10.20;97.20;;;;;;5074260;28;20915;-70
2022/11/24 01:51:57;;;;;;;13.73;3.10;;;10.10;97.30;;;;;;5074119;28;20822;-70
2022/11/24 01:54:26;;;;;;;16.90;3.17;;;10.10;97.30;;;;;;5074491;28;20432;-70
2022/11/24 01:56:56;;;;;;;9.53;3.70;;;10.10;97.30;;;;;;5074093;28;20940;-70
2022/11/24 01:59:23;;;;;;;24.20;3.37;;;10.10;97.40;;;;;;5074310;28;20454;-70
2022/11/24 02:01:51;;;;;;;13.90;3.30;;;10.10;97.40;;;;;;5074050;28;20445;-70
2022/11/24 02:04:23;;;;;;;16.50;4.13;;;10.20;97.50;;;;;;5074347;28;20460;-70
2022/11/24 02:06:52;;;;;;;14.03;3.17;;;10.20;97.40;;;;;;5074057;28;20851;-70
2022/11/24 02:09:23;;;;;;;10.53;4.03;;;10.20;97.40;;;;;;5074316;28;20458;-70
2022/11/24 02:11:51;;;;;;;13.60;3.20;;;10.20;97.30;;;;;;5074117;28;20444;-70
2022/11/24 02:14:19;;;;;;;18.23;4.57;;;10.20;97.30;;;;;;5074001;28;20433;-70
2022/11/24 02:16:50;;;;;;;12.50;4.40;;;10.30;97.40;;;;;;5074474;28;20440;-70
2022/11/24 02:19:29;;;;;;;15.80;3.40;;;10.30;97.40;;;;;;5074112;28;20516;-70
2022/11/24 02:21:55;;;;;;;13.73;4.10;;;10.30;97.80;;;;;;5074127;28;20467;-70
2022/11/24 02:24:28;;;;;;;21.53;3.93;;;10.30;97.30;;;;;;5073889;28;20454;-70
2022/11/24 02:26:56;;;;;;;16.60;3.30;;;10.30;97.40;;;;;;5074781;28;20479;-70
2022/11/24 02:29:23;;;;;;;19.57;4.63;;;10.30;97.40;;;;;;5073665;28;20452;-70
2022/11/24 02:31:55;;;;;;;12.00;3.23;;;10.30;97.40;;;;;;5073900;28;20452;-70
2022/11/24 02:34:21;;;;;;;17.93;3.10;;;10.40;97.40;;;;;;5073529;28;20930;-70
2022/11/24 02:36:48;;;;;;;17.83;3.97;;;10.30;97.50;;;;;;5073686;28;20456;-70
2022/11/24 02:39:16;;;;;;;13.80;3.03;;;10.30;97.50;;;;;;5074176;28;20467;-70
2022/11/24 02:41:46;;;;;;;16.47;3.20;;;10.30;97.40;;;;;;5074191;28;20452;-70
2022/11/24 02:44:17;;;;;;;15.50;3.13;;;10.30;97.50;;;;;;5074199;28;20452;-70
2022/11/24 02:46:44;;;;;;;18.23;3.50;;;10.30;97.50;;;;;;5073958;28;20474;-70
2022/11/24 02:49:11;;;;;;;16.93;4.07;;;10.30;97.40;;;;;;5075069;28;20463;-70
2022/11/24 02:51:37;;;;;;;16.03;3.43;;;10.30;97.70;;;;;;5075109;28;20447;-70
2022/11/24 02:54:04;;;;;;;18.37;3.97;;;10.30;97.40;;;;;;5073766;28;20472;-70
2022/11/24 02:56:31;;;;;;;16.43;3.50;;;10.30;97.30;;;;;;5073197;28;20941;-70
2022/11/24 02:58:57;;;;;;;18.27;4.00;;;10.30;97.40;;;;;;5073446;28;20444;-70
2022/11/24 03:01:25;;;;;;;16.37;3.10;;;10.30;97.40;;;;;;5073522;28;20460;-70
2022/11/24 03:03:52;;;;;;;18.43;4.20;;;10.30;97.30;;;;;;5073526;28;20487;-70
2022/11/24 03:06:19;;;;;;;14.47;3.77;;;10.30;97.20;;;;;;5073349;28;20488;-70
2022/11/24 03:08:45;;;;;;;19.43;4.60;;;10.40;97.30;;;;;;5073273;28;20447;-70
2022/11/24 03:11:12;;;;;;;16.77;3.50;;;10.30;97.30;;;;;;5074276;28;20452;-70
2022/11/24 03:13:39;;;;;;;23.00;4.30;;;10.30;97.30;;;;;;5073467;28;21013;-70
2022/11/24 03:16:09;;;;;;;19.03;4.20;;;10.30;97.20;;;;;;5073768;28;20440;-70
2022/11/24 03:18:37;;;;;;;14.17;3.93;;;10.30;97.10;;;;;;5073360;28;20880;-70
2022/11/24 03:21:03;;;;;;;18.20;4.00;;;10.30;97.20;;;;;;5073479;28;20448;-70
2022/11/24 03:23:30;;;;;;;21.10;3.83;;;10.30;97.20;;;;;;5074323;28;20486;-70
2022/11/24 03:26:06;;;;;;;16.90;3.63;;;10.30;97.20;;;;;;5074117;28;20455;-70
2022/11/24 03:28:33;;;;;;;14.13;4.13;;;10.30;97.20;;;;;;5073416;28;20430;-70
2022/11/24 03:31:00;;;;;;;20.80;4.20;;;10.30;97.10;;;;;;5072987;28;20973;-69
2022/11/24 03:33:27;;;;;;;22.23;4.60;;;10.30;97.10;;;;;;5073572;28;20471;-70
2022/11/24 03:35:55;;;;;;;20.70;4.57;;;10.30;97.10;;;;;;5073428;28;20454;-71
2022/11/24 03:38:22;;;;;;;17.93;3.30;;;10.30;97.20;;;;;;5073422;28;20456;-71
2022/11/24 03:40:49;;;;;;;12.80;3.80;;;10.30;97.20;;;;;;5073525;28;20951;-71
2022/11/24 03:43:16;;;;;;;17.83;4.03;;;10.30;97.20;;;;;;5079642;28;20474;-70
2022/11/24 03:45:45;;;;;;;19.23;3.60;;;10.40;97.30;;;;;;5085372;28;20444;-70
2022/11/24 03:48:12;;;;;;;24.07;4.87;;;10.40;97.20;;;;;;5090363;28;20509;-70
2022/11/24 03:50:38;;;;;;;17.63;2.93;;;10.40;97.20;;;;;;5093298;28;20458;-70
2022/11/24 03:53:06;;;;;;;20.33;4.77;;;10.40;97.20;;;;;;5092604;28;20467;-70
2022/11/24 03:55:33;;;;;;;19.10;4.10;;;10.40;97.20;;;;;;5088443;28;20450;-70
2022/11/24 03:58:00;;;;;;;18.13;3.90;;;10.40;97.20;;;;;;5082889;28;20951;-70
2022/11/24 04:00:27;;;;;;;21.60;3.63;;;10.50;97.40;;;;;;5078205;28;20458;-70
2022/11/24 04:02:53;;;;;;;12.20;3.80;;;10.50;97.60;;;;;;5076965;28;20467;-70
2022/11/24 04:05:20;;;;;;;14.43;3.70;;;10.50;97.80;;;;;;5076265;28;20964;-70
2022/11/24 04:07:47;;;;;;;13.27;3.10;;;10.40;97.70;;;;;;5076560;28;20467;-70
2022/11/24 04:10:15;;;;;;;9.23;3.87;;;10.50;97.80;;;;;;5076509;28;20450;-70
2022/11/24 04:12:43;;;;;;;19.83;3.30;;;10.40;97.80;;;;;;5076504;28;20463;-70
2022/11/24 04:15:11;;;;;;;15.67;4.00;;;10.40;97.80;;;;;;5076219;28;20521;-70
2022/11/24 04:17:38;;;;;;;21.23;4.83;;;10.40;97.60;;;;;;5076378;28;20454;-70
2022/11/24 04:20:05;;;;;;;18.50;3.77;;;10.40;97.60;;;;;;5076360;28;20451;-70
2022/11/24 04:22:32;;;;;;;15.80;4.33;;;10.40;97.70;;;;;;5076262;28;20994;-70
2022/11/24 04:24:59;;;;;;;20.17;4.50;;;10.40;97.70;;;;;;5076555;28;20434;-70
2022/11/24 04:27:27;;;;;;;21.53;3.90;;;10.40;97.70;;;;;;5076348;28;20828;-70
2022/11/24 04:29:54;;;;;;;27.83;4.17;;;10.40;97.40;;;;;;5075860;28;20915;-70
2022/11/24 04:32:20;;;;;;;15.53;4.10;;;10.40;97.60;;;;;;5076333;28;20476;-70
2022/11/24 04:34:47;;;;;;;19.40;3.90;;;10.40;97.60;;;;;;5076076;28;20459;-70
2022/11/24 04:37:14;;;;;;;22.40;5.20;;;10.40;97.60;;;;;;5075933;28;20951;-70
2022/11/24 04:39:41;;;;;;;19.20;4.10;;;10.30;97.60;;;;;;5075987;28;20458;-70
2022/11/24 04:42:07;;;;;;;20.90;4.40;;;10.40;97.60;;;;;;5076134;28;20464;-70
2022/11/24 04:44:35;;;;;;;11.80;3.67;;;10.40;97.50;;;;;;5075851;28;20443;-70
2022/11/24 04:47:02;;;;;;;19.73;4.83;;;10.30;97.40;;;;;;5075933;28;20484;-70
2022/11/24 04:49:29;;;;;;;15.77;3.50;;;10.40;97.50;;;;;;5075609;28;20959;-70
2022/11/24 04:51:56;;;;;;;17.50;3.80;;;10.40;97.60;;;;;;5075610;28;20521;-70
2022/11/24 04:54:23;;;;;;;22.40;4.23;;;10.40;97.70;;;;;;5074865;28;20444;-70
2022/11/24 04:56:51;;;;;;;15.80;4.00;;;10.40;97.70;;;;;;5075688;28;20448;-70
2022/11/24 04:59:19;;;;;;;15.90;3.40;;;10.40;97.50;;;;;;5075762;28;20452;-70
2022/11/24 05:01:47;;;;;;;16.37;3.73;;;10.40;97.50;;;;;;5075694;28;20459;-70
2022/11/24 05:04:15;;;;;;;15.57;4.17;;;10.40;97.60;;;;;;5075456;28;20444;-68
2022/11/24 05:06:42;;;;;;;18.37;4.27;;;10.40;97.60;;;;;;5076779;28;20443;-69
2022/11/24 05:09:13;;;;;;;19.17;3.73;;;10.50;97.60;;;;;;5076088;28;20630;-69
2022/11/24 05:11:40;;;;;;;18.83;4.80;;;10.50;97.60;;;;;;5076205;28;20810;-68
2022/11/24 05:14:06;;;;;;;21.90;4.90;;;10.50;97.70;;;;;;5075713;28;20464;-69
2022/11/24 05:16:33;;;;;;;19.10;3.93;;;10.40;97.80;;;;;;5075117;28;20435;-69
2022/11/24 05:19:01;;;;;;;25.17;3.57;;;10.40;97.90;;;;;;5076798;28;20448;-69
2022/11/24 05:21:28;;;;;;;12.90;4.20;;;10.40;97.80;;;;;;5076364;28;20460;-69
2022/11/24 05:23:54;;;;;;;13.73;4.07;;;10.40;97.90;;;;;;5075196;28;20479;-69
2022/11/24 05:26:21;;;;;;;15.40;3.60;;;10.40;97.80;;;;;;5075100;28;20456;-69
2022/11/24 05:28:48;;;;;;;18.87;3.90;;;10.40;97.80;;;;;;5074941;28;20486;-69
2022/11/24 05:31:15;;;;;;;23.83;3.83;;;10.40;97.80;;;;;;5075039;28;20454;-69
2022/11/24 05:33:42;;;;;;;17.53;3.60;;;10.40;97.80;;;;;;5075467;28;20468;-69
2022/11/24 05:36:51;;;;;;;22.23;3.57;;;10.40;97.80;;;;;;5074727;28;20456;-69
2022/11/24 05:38:58;;;;;;;17.20;3.67;;;10.40;97.70;;;;;;5074563;28;20469;-69
2022/11/24 05:41:25;;;;;;;15.03;3.33;;;10.30;97.70;;;;;;5075216;28;20443;-69
2022/11/24 05:43:52;;;;;;;18.67;4.90;;;10.30;97.60;;;;;;5075349;28;20466;-69
2022/11/24 05:46:19;;;;;;;17.30;3.80;;;10.30;97.60;;;;;;5074699;28;20447;-69
2022/11/24 05:48:45;;;;;;;14.30;3.27;;;10.40;97.50;;;;;;5075236;28;20488;-69
2022/11/24 05:51:13;;;;;;;12.10;3.50;;;10.40;97.30;;;;;;5076898;28;20447;-69
2022/11/24 05:53:40;;;;;;;15.43;3.10;;;10.30;97.40;;;;;;5075416;28;20467;-69
2022/11/24 05:56:07;;;;;;;13.67;4.00;;;10.30;97.40;;;;;;5074391;28;20936;-69
2022/11/24 05:58:34;;;;;;;15.53;3.50;;;10.30;97.40;;;;;;5074754;28;20443;-69
2022/11/24 06:01:04;;;;;;;8.87;2.60;;;10.30;97.40;;;;;;5074572;28;20993;-69
2022/11/24 06:03:31;;;;;;;10.43;2.60;;;10.20;97.50;;;;;;5077407;28;20472;-69
2022/11/24 06:05:58;;;;;;;14.80;3.53;;;10.30;97.50;;;;;;5075014;28;20466;-69
2022/11/24 06:08:26;;;;;;;9.77;2.27;;;10.30;97.30;;;;;;5074340;28;20469;-69
2022/11/24 06:10:53;;;;;;;12.23;3.20;;;10.30;97.10;;;;;;5074462;28;20448;-69
2022/11/24 06:13:19;;;;;;;18.17;3.73;;;10.30;97.10;;;;;;5074210;28;20819;-69
2022/11/24 06:15:46;;;;;;;9.67;2.17;;;10.30;96.90;;;;;;5074225;28;20443;-69
2022/11/24 06:18:13;;;;;;;13.90;2.70;;;10.20;96.50;;;;;;5074520;28;20467;-69
2022/11/24 06:20:39;;;;;;;11.53;2.80;;;10.20;96.50;;;;;;5074375;28;20447;-69
2022/11/24 06:23:06;;;;;;;8.60;2.13;;;10.20;96.50;;;;;;5074473;28;20889;-69
2022/11/24 06:25:34;;;;;;;7.47;2.00;;;10.20;96.00;;;;;;5074164;28;20444;-69
2022/11/24 06:28:03;;;;;;;6.37;1.60;;;10.20;95.70;;;;;;5073916;28;20475;-69
2022/11/24 06:30:30;;;;;;;7.00;1.50;;;10.20;95.60;;;;;;5074202;28;20450;-69
2022/11/24 06:32:57;;;;;;;5.70;1.80;;;10.20;95.50;;;;;;5073935;28;20475;-69
2022/11/24 06:35:23;;;;;;;7.47;1.47;;;10.10;95.10;;;;;;5074009;28;20452;-69
2022/11/24 06:37:50;;;;;;;6.87;1.80;;;10.10;95.20;;;;;;5073827;28;20474;-69
2022/11/24 06:40:17;;;;;;;6.57;1.37;;;10.10;94.90;;;;;;5074306;28;20452;-69
2022/11/24 06:42:50;;;;;;;6.23;2.70;;;10.10;94.90;;;;;;5073902;28;20468;-69
2022/11/24 06:45:16;;;;;;;5.07;0.93;;;10.10;94.90;;;;;;5074047;28;20911;-69
2022/11/24 06:47:43;;;;;;;3.07;0.97;;;10.00;94.80;;;;;;5074101;28;20850;-69
2022/11/24 06:50:10;;;;;;;3.20;1.17;;;10.00;94.60;;;;;;5074241;28;20456;-69
2022/11/24 06:52:37;;;;;;;6.00;1.03;;;10.00;94.60;;;;;;5074093;28;20555;-69
2022/11/24 06:55:04;;;;;;;2.70;0.80;;;10.00;94.70;;;;;;5074161;28;20452;-69
2022/11/24 06:57:31;;;;;;;7.30;1.77;;;10.00;94.70;;;;;;5073989;28;20447;-69
2022/11/24 06:59:59;;;;;;;6.40;1.13;;;9.90;95.30;;;;;;5073951;28;20456;-69
2022/11/24 07:02:26;;;;;;;2.90;1.00;;;9.90;95.40;;;;;;5074226;28;20467;-69
2022/11/24 07:04:53;;;;;;;3.67;1.03;;;9.90;95.50;;;;;;5074008;28;20453;-69
2022/11/24 07:07:20;;;;;;;4.73;0.97;;;9.80;95.50;;;;;;5074009;28;20444;-69
2022/11/24 07:09:46;;;;;;;4.17;1.40;;;9.80;95.50;;;;;;5074155;28;20448;-69
2022/11/24 07:12:13;;;;;;;4.70;0.80;;;9.80;95.70;;;;;;5074526;28;20472;-69
2022/11/24 07:14:40;;;;;;;1.83;0.60;;;9.80;95.80;;;;;;5075252;28;20452;-69
2022/11/24 07:17:08;;;;;;;5.03;0.93;;;9.70;95.90;;;;;;5076926;28;20822;-69
2022/11/24 07:19:35;;;;;;;2.40;0.90;;;9.70;96.10;;;;;;5080036;28;20438;-69
2022/11/24 07:22:02;;;;;;;4.33;1.20;;;9.70;96.20;;;;;;5079568;28;20435;-69
2022/11/24 07:24:28;;;;;;;4.40;1.27;;;9.70;96.30;;;;;;5079289;28;20454;-69
2022/11/24 07:26:55;;;;;;;8.17;1.30;;;9.70;96.40;;;;;;5079349;28;20451;-69
2022/11/24 07:29:22;;;;;;;7.33;1.33;;;9.70;96.50;;;;;;5079829;28;20487;-69
2022/11/24 07:31:48;;;;;;;3.77;1.00;;;9.70;96.60;;;;;;5079735;28;20447;-69
2022/11/24 07:34:16;;;;;;;3.10;0.97;;;9.70;96.50;;;;;;5079918;28;20451;-69
2022/11/24 07:36:43;;;;;;;2.70;1.10;;;9.70;96.60;;;;;;5080456;28;20470;-69
2022/11/24 07:39:10;;;;;;;7.63;1.13;;;9.70;96.60;;;;;;5080437;28;20452;-69
2022/11/24 07:41:37;;;;;;;2.93;1.07;;;9.70;96.60;;;;;;5080714;28;20956;-69
2022/11/24 07:44:04;;;;;;;3.07;1.10;;;9.70;96.70;;;;;;5080636;28;20502;-69
2022/11/24 07:46:31;;;;;;;7.27;1.37;;;9.60;96.80;;;;;;5081164;28;20439;-69
2022/11/24 07:48:58;;;;;;;8.00;1.83;;;9.70;96.90;;;;;;5082331;28;20491;-69
2022/11/24 07:51:26;;;;;;;1.97;0.87;;;9.70;97.10;;;;;;5082881;28;20446;-69
2022/11/24 07:53:52;;;;;;;7.83;1.50;;;9.70;97.20;;;;;;5082842;28;20471;-69
2022/11/24 07:56:19;;;;;;;5.30;1.20;;;9.60;97.40;;;;;;5083406;28;20430;-69
2022/11/24 07:58:46;;;;;;;7.33;1.30;;;9.60;97.40;;;;;;5085733;28;20455;-69
2022/11/24 08:01:14;;;;;;;4.40;1.93;;;9.70;97.60;;;;;;5084987;28;20945;-69
2022/11/24 08:03:41;;;;;;;7.60;1.30;;;9.80;97.50;;;;;;5086461;28;20975;-69
2022/11/24 08:06:08;;;;;;;3.93;1.23;;;9.80;97.60;;;;;;5086261;28;20882;-69
2022/11/24 08:08:36;;;;;;;8.27;2.10;;;9.80;98.00;;;;;;5085982;28;20489;-69
2022/11/24 08:11:07;;;;;;;8.13;2.00;;;9.90;97.60;;;;;;5085850;28;20429;-69
2022/11/24 08:13:34;;;;;;;4.80;1.60;;;10.00;97.20;;;;;;5089287;28;20463;-69
2022/11/24 08:16:05;;;;;;;9.83;1.73;;;10.00;96.90;;;;;;5089805;28;20454;-69
2022/11/24 08:18:32;;;;;;;5.00;2.33;;;10.00;96.90;;;;;;5096575;28;20451;-69
2022/11/24 08:20:59;;;;;;;9.53;2.13;;;10.10;97.00;;;;;;5099369;28;20416;-70
2022/11/24 08:23:26;;;;;;;9.43;2.00;;;10.10;96.90;;;;;;5100798;28;20459;-69
2022/11/24 08:25:55;;;;;;;8.37;2.60;;;10.10;96.80;;;;;;5090844;28;20440;-69
2022/11/24 08:28:22;;;;;;;10.07;2.47;;;10.10;96.80;;;;;;5082890;28;21072;-69
2022/11/24 08:30:49;;;;;;;6.90;2.47;;;10.20;96.80;;;;;;5085110;28;20448;-69
2022/11/24 08:33:16;;;;;;;8.03;2.10;;;10.20;96.80;;;;;;5082163;28;20478;-69
2022/11/24 08:35:42;;;;;;;10.17;2.03;;;10.20;96.70;;;;;;5082084;28;20451;-69
2022/11/24 08:38:09;;;;;;;8.33;2.20;;;10.10;96.90;;;;;;5085469;28;20456;-69
2022/11/24 08:40:36;;;;;;;6.63;2.03;;;10.20;97.00;;;;;;5098302;28;20424;-69
2022/11/24 08:43:04;;;;;;;9.63;2.10;;;10.20;96.80;;;;;;5100212;28;20535;-69
2022/11/24 08:45:31;;;;;;;6.93;2.23;;;10.10;96.80;;;;;;5101138;28;20448;-69
2022/11/24 08:47:57;;;;;;;6.83;2.00;;;10.20;97.10;;;;;;5101278;28;20465;-70
2022/11/24 08:50:25;;;;;;;10.60;2.00;;;10.20;96.90;;;;;;5093255;28;20962;-69
2022/11/24 08:52:52;;;;;;;8.57;2.17;;;10.20;96.90;;;;;;5087799;28;20473;-69
2022/11/24 08:55:19;;;;;;;12.00;2.10;;;10.20;96.70;;;;;;5089348;28;20452;-69
2022/11/24 08:57:46;;;;;;;12.03;2.63;;;10.20;96.80;;;;;;5090990;28;20438;-69
2022/11/24 09:00:21;;;;;;;12.33;2.60;;;10.30;96.60;;;;;;5090708;28;20447;-69
2022/11/24 09:02:54;;;;;;;7.80;2.23;;;10.30;96.60;;;;;;5087445;28;20525;-69
2022/11/24 09:05:20;;;;;;;5.27;2.30;;;10.30;96.50;;;;;;5082122;28;20428;-69
2022/11/24 09:07:47;;;;;;;9.30;2.47;;;10.40;96.50;;;;;;5078063;28;20455;-69
2022/11/24 09:10:14;;;;;;;5.80;1.80;;;10.40;96.30;;;;;;5075943;28;20449;-69
2022/11/24 09:12:40;;;;;;;9.33;2.37;;;10.40;96.30;;;;;;5075442;28;20471;-69
2022/11/24 09:15:07;;;;;;;10.40;2.70;;;10.50;96.50;;;;;;5075436;28;20447;-69
2022/11/24 09:17:36;;;;;;;13.30;2.40;;;10.40;96.10;;;;;;5075417;28;20505;-69
2022/11/24 09:20:03;;;;;;;6.63;1.80;;;10.40;96.40;;;;;;5075239;28;20448;-69
2022/11/24 09:22:30;;;;;;;9.10;1.97;;;10.40;96.00;;;;;;5074635;28;20476;-69
2022/11/24 09:24:57;;;;;;;9.10;2.40;;;10.40;96.30;;;;;;5074917;28;20873;-69
2022/11/24 09:27:24;;;;;;;7.80;1.80;;;10.40;96.20;;;;;;5074995;28;20456;-69
2022/11/24 09:29:51;;;;;;;11.73;2.10;;;10.40;96.20;;;;;;5074999;28;20495;-69
2022/11/24 09:32:18;;;;;;;16.73;3.37;;;10.40;96.20;;;;;;5074883;28;20836;-69
2022/11/24 09:34:46;;;;;;;7.53;2.47;;;10.40;96.50;;;;;;5074943;28;20455;-69
2022/11/24 09:37:13;;;;;;;9.17;2.27;;;10.40;96.20;;;;;;5074718;28;20471;-69
2022/11/24 09:39:39;;;;;;;12.23;2.03;;;10.50;96.30;;;;;;5074124;28;20939;-69
2022/11/24 09:42:14;;;;;;;5.50;1.80;;;10.50;96.20;;;;;;5074908;28;20466;-69
2022/11/24 09:45:15;;;;;;;8.10;2.03;;;10.50;96.30;;;;;;5074761;28;20432;-69
2022/11/24 09:47:53;;;;;;;7.43;2.67;;;10.40;96.10;;;;;;5067828;28;20452;-68
2022/11/24 09:50:23;;;;;;;8.60;2.30;;;10.50;96.10;;;;;;5074713;28;20443;-69
2022/11/24 09:52:58;;;;;;;9.10;2.70;;;10.60;96.10;;;;;;5074463;28;20472;-68
2022/11/24 09:55:33;;;;;;;10.43;2.80;;;10.70;96.10;;;;;;5074620;28;20798;-69
2022/11/24 09:58:11;;;;;;;12.17;2.13;;;10.70;96.00;;;;;;5074506;28;20443;-69
2022/11/24 10:00:38;;;;;;;11.57;2.27;;;10.70;95.80;;;;;;5074523;28;20435;-69
2022/11/24 10:03:05;;;;;;;9.83;2.00;;;10.80;95.90;;;;;;5074763;28;20476;-69
2022/11/24 10:05:35;;;;;;;5.80;1.90;;;10.90;95.40;;;;;;5073959;28;20444;-69
2022/11/24 10:08:10;;;;;;;10.93;2.30;;;10.90;95.40;;;;;;5074149;28;20443;-69
2022/11/24 10:10:47;;;;;;;10.03;2.17;;;11.00;95.70;;;;;;5074400;28;20427;-69
2022/11/24 10:13:26;;;;;;;12.23;2.83;;;11.10;95.00;;;;;;5074426;28;20562;-69
2022/11/24 10:16:02;;;;;;;7.33;2.47;;;11.20;94.50;;;;;;5074706;28;20427;-69
2022/11/24 10:18:43;;;;;;;13.37;2.63;;;11.20;94.90;;;;;;5074451;28;20435;-69
2022/11/24 10:21:32;;;;;;;9.60;2.57;;;11.30;94.90;;;;;;5074117;28;20429;-69
2022/11/24 10:24:20;;;;;;;11.30;2.73;;;11.30;94.60;;;;;;5073925;28;20476;-69
2022/11/24 10:26:55;;;;;;;10.00;1.93;;;11.40;94.70;;;;;;5074889;28;20442;-69
2022/11/24 10:29:28;;;;;;;10.63;2.63;;;11.50;94.70;;;;;;5073961;28;20471;-69
2022/11/24 10:31:56;;;;;;;15.83;3.43;;;11.60;94.80;;;;;;5073776;28;20436;-69
2022/11/24 10:34:29;;;;;;;8.40;2.40;;;11.60;94.20;;;;;;5073925;28;20490;-69
2022/11/24 10:37:02;;;;;;;9.80;2.23;;;11.60;94.40;;;;;;5073984;28;20475;-70
2022/11/24 10:39:34;;;;;;;6.10;2.80;;;11.70;94.30;;;;;;5078945;28;20425;-70
2022/11/24 10:42:05;;;;;;;7.47;2.60;;;11.80;93.70;;;;;;5074264;28;20432;-70
2022/11/24 10:44:32;;;;;;;6.63;2.10;;;11.90;94.00;;;;;;5073867;28;20460;-70
2022/11/24 10:46:59;;;;;;;8.80;2.23;;;12.00;94.10;;;;;;5073784;28;20823;-70
2022/11/24 10:49:29;;;;;;;10.30;2.27;;;12.00;93.10;;;;;;5073658;28;20481;-70
2022/11/24 10:52:05;;;;;;;11.53;2.30;;;12.10;93.00;;;;;;5072790;28;20452;-70
2022/11/24 10:54:34;;;;;;;8.47;2.80;;;12.30;92.80;;;;;;5073420;28;20497;-70
2022/11/24 10:57:02;;;;;;;10.20;2.50;;;12.50;92.30;;;;;;5073547;28;20582;-70
2022/11/24 10:59:37;;;;;;;7.10;2.03;;;12.80;91.90;;;;;;5073491;28;20459;-70
2022/11/24 11:02:35;;;;;;;6.67;2.03;;;13.00;91.00;;;;;;5073480;28;20429;-70
2022/11/24 11:05:25;;;;;;;16.30;3.00;;;13.10;90.80;;;;;;5073690;28;20448;-70
2022/11/24 11:08:14;;;;;;;7.50;2.87;;;13.50;90.60;;;;;;5073547;28;20447;-70
2022/11/24 11:10:42;;;;;;;10.30;2.30;;;13.80;88.90;;;;;;5073352;28;20507;-70
2022/11/24 11:13:24;;;;;;;12.63;2.90;;;14.10;86.00;;;;;;5073313;28;20987;-70
2022/11/24 11:15:51;;;;;;;8.33;2.67;;;14.20;85.50;;;;;;5074163;28;20923;-70
2022/11/24 11:18:19;;;;;;;10.10;2.53;;;14.20;84.50;;;;;;5073752;28;20452;-72
2022/11/24 11:20:51;;;;;;;15.40;2.97;;;14.40;83.20;;;;;;5073204;28;20448;-69
2022/11/24 11:23:26;;;;;;;10.40;2.80;;;14.40;82.80;;;;;;5076510;28;20465;-69
2022/11/24 11:26:30;;;;;;;13.53;2.90;;;14.50;82.50;;;;;;5073420;28;20916;-70
2022/11/24 11:29:00;;;;;;;9.23;2.40;;;14.70;82.40;;;;;;5073183;28;20472;-69
2022/11/24 11:31:27;;;;;;;11.70;2.33;;;14.80;80.90;;;;;;5072898;28;20868;-69
2022/11/24 11:33:56;;;;;;;12.00;2.43;;;15.00;80.20;;;;;;5073510;28;20467;-69
2022/11/24 11:36:24;;;;;;;9.63;2.30;;;15.10;80.00;;;;;;5073054;28;20460;-70
2022/11/24 11:38:51;;;;;;;11.03;2.67;;;15.40;80.10;;;;;;5073184;28;20449;-70
2022/11/24 11:41:23;;;;;;;8.80;2.63;;;15.50;75.20;;;;;;5072817;28;20952;-70
2022/11/24 11:43:58;;;;;;;11.13;3.03;;;15.70;75.30;;;;;;5073354;28;20460;-70
2022/11/24 11:46:28;;;;;;;8.63;2.10;;;15.60;74.30;;;;;;5072825;28;20907;-70
2022/11/24 11:48:55;;;;;;;11.00;2.73;;;15.70;74.90;;;;;;5073017;28;20472;-70
2022/11/24 11:51:40;;;;;;;7.27;2.07;;;15.60;74.50;;;;;;5073145;28;20528;-70
2022/11/24 11:54:13;;;;;;;8.13;2.20;;;15.80;75.00;;;;;;5073488;28;20469;-70
2022/11/24 11:56:44;;;;;;;10.83;3.10;;;16.00;72.70;;;;;;5074152;28;20449;-70
2022/11/24 11:59:44;;;;;;;9.03;2.47;;;16.30;72.80;;;;;;5073210;28;20909;-70
2022/11/24 12:02:54;;;;;;;14.27;3.80;;;16.50;70.30;;;;;;5073170;28;20464;-70
2022/11/24 12:05:29;;;;;;;7.60;2.17;;;16.50;70.20;;;;;;5038652;28;20452;-70
2022/11/24 12:08:11;;;;;;;10.40;2.63;;;16.60;69.90;;;;;;5076258;28;20428;-70
2022/11/24 12:10:45;;;;;;;10.57;2.13;;;16.70;68.70;;;;;;5076519;28;20464;-70
2022/11/24 12:13:45;;;;;;;13.43;3.23;;;16.70;68.80;;;;;;5076545;28;20461;-70
2022/11/24 12:16:28;;;;;;;10.90;2.20;;;16.70;68.10;;;;;;5076629;28;20437;-70
2022/11/24 12:19:11;;;;;;;6.40;2.20;;;17.00;68.20;;;;;;5076063;28;20799;-70
2022/11/24 12:21:48;;;;;;;10.83;2.73;;;16.80;66.00;;;;;;5076413;28;20429;-70
2022/11/24 12:24:21;;;;;;;12.53;3.27;;;16.70;67.50;;;;;;5076400;28;20432;-70
2022/11/24 12:26:52;;;;;;;5.30;2.17;;;16.90;67.10;;;;;;5076492;28;20433;-70
2022/11/24 12:29:55;;;;;;;9.70;2.70;;;16.90;66.00;;;;;;5076125;28;20472;-70
2022/11/24 12:32:38;;;;;;;5.43;1.80;;;17.10;66.40;;;;;;5076160;28;20464;-70
2022/11/24 12:35:17;;;;;;;9.70;2.60;;;16.90;64.30;;;;;;5076164;28;20490;-70
2022/11/24 12:37:54;;;;;;;9.63;3.00;;;16.80;65.90;;;;;;5075860;28;20456;-70
2022/11/24 12:40:35;;;;;;;13.10;2.40;;;17.10;66.60;;;;;;5058041;28;20440;-70
2022/11/24 12:43:11;;;;;;;8.47;2.43;;;17.40;64.90;;;;;;5076209;28;20475;-70
2022/11/24 12:45:50;;;;;;;8.73;2.23;;;17.80;63.80;;;;;;5076025;28;20447;-70
2022/11/24 12:48:28;;;;;;;12.00;2.40;;;17.80;61.60;;;;;;5075698;28;20943;-70
2022/11/24 12:50:57;;;;;;;9.50;2.70;;;18.00;62.20;;;;;;5058573;28;20473;-70
2022/11/24 12:53:26;;;;;;;8.13;2.37;;;18.10;61.60;;;;;;5075720;28;20550;-70